sensor_id;sensor_type;location;lat;lon;timestamp;P1;durP1;ratioP1;P2;durP2;ratioP2
19623;SDS011;9959;49.798;9.928;2022-12-11T00:00:37;40.90;;;14.80;;
19623;SDS011;9959;49.798;9.928;2022-12-11T00:03:06;37.50;;;13.83;;
19623;SDS011;9959;49.798;9.928;2022-12-11T00:05:41;37.33;;;14.20;;
19623;SDS011;9959;49.798;9.928;2022-12-11T00:08:09;39.47;;;15.30;;
19623;SDS011;9959;49.798;9.928;2022-12-11T00:10:45;39.07;;;14.60;;
19623;SDS011;9959;49.798;9.928;2022-12-11T00:13:14;37.60;;;13.63;;
19623;SDS011;9959;49.798;9.928;2022-12-11T00:15:42;38.00;;;15.00;;
19623;SDS011;9959;49.798;9.928;2022-12-11T00:18:11;37.10;;;15.30;;
19623;SDS011;9959;49.798;9.928;2022-12-11T00:20:39;38.17;;;15.13;;
19623;SDS011;9959;49.798;9.928;2022-12-11T00:23:07;42.83;;;15.00;;
19623;SDS011;9959;49.798;9.928;2022-12-11T00:25:40;36.13;;;13.77;;
19623;SDS011;9959;49.798;9.928;2022-12-11T00:28:10;38.27;;;15.77;;
19623;SDS011;9959;49.798;9.928;2022-12-11T00:30:39;38.80;;;14.47;;
19623;SDS011;9959;49.798;9.928;2022-12-11T00:33:07;36.50;;;14.20;;
19623;SDS011;9959;49.798;9.928;2022-12-11T00:35:36;37.77;;;15.93;;
19623;SDS011;9959;49.798;9.928;2022-12-11T00:38:05;41.63;;;15.40;;
19623;SDS011;9959;49.798;9.928;2022-12-11T00:40:33;40.53;;;14.93;;
19623;SDS011;9959;49.798;9.928;2022-12-11T00:43:02;43.40;;;16.67;;
19623;SDS011;9959;49.798;9.928;2022-12-11T00:45:34;36.43;;;14.70;;
19623;SDS011;9959;49.798;9.928;2022-12-11T00:48:03;38.53;;;14.73;;
19623;SDS011;9959;49.798;9.928;2022-12-11T00:50:32;34.33;;;13.43;;
19623;SDS011;9959;49.798;9.928;2022-12-11T00:53:00;35.57;;;14.50;;
19623;SDS011;9959;49.798;9.928;2022-12-11T00:55:28;37.73;;;14.63;;
19623;SDS011;9959;49.798;9.928;2022-12-11T00:57:57;39.53;;;14.80;;
19623;SDS011;9959;49.798;9.928;2022-12-11T01:00:26;42.03;;;15.75;;
19623;SDS011;9959;49.798;9.928;2022-12-11T01:02:54;33.50;;;12.57;;
19623;SDS011;9959;49.798;9.928;2022-12-11T01:05:22;38.03;;;14.93;;
19623;SDS011;9959;49.798;9.928;2022-12-11T01:07:51;30.73;;;13.13;;
19623;SDS011;9959;49.798;9.928;2022-12-11T01:10:19;35.17;;;13.70;;
19623;SDS011;9959;49.798;9.928;2022-12-11T01:12:49;37.87;;;14.00;;
19623;SDS011;9959;49.798;9.928;2022-12-11T01:15:18;38.87;;;13.40;;
19623;SDS011;9959;49.798;9.928;2022-12-11T01:17:49;35.87;;;14.67;;
19623;SDS011;9959;49.798;9.928;2022-12-11T01:20:18;32.47;;;12.57;;
19623;SDS011;9959;49.798;9.928;2022-12-11T01:22:49;31.10;;;13.30;;
19623;SDS011;9959;49.798;9.928;2022-12-11T01:25:18;34.53;;;13.37;;
19623;SDS011;9959;49.798;9.928;2022-12-11T01:27:48;33.13;;;13.77;;
19623;SDS011;9959;49.798;9.928;2022-12-11T01:30:17;32.57;;;12.33;;
19623;SDS011;9959;49.798;9.928;2022-12-11T01:32:46;30.47;;;13.53;;
19623;SDS011;9959;49.798;9.928;2022-12-11T01:35:16;28.23;;;12.47;;
19623;SDS011;9959;49.798;9.928;2022-12-11T01:37:45;32.57;;;12.83;;
19623;SDS011;9959;49.798;9.928;2022-12-11T01:40:14;26.67;;;11.37;;
19623;SDS011;9959;49.798;9.928;2022-12-11T01:42:43;30.43;;;12.13;;
19623;SDS011;9959;49.798;9.928;2022-12-11T01:48:06;26.83;;;11.83;;
19623;SDS011;9959;49.798;9.928;2022-12-11T01:50:38;24.40;;;10.30;;
19623;SDS011;9959;49.798;9.928;2022-12-11T01:53:11;28.00;;;11.27;;
19623;SDS011;9959;49.798;9.928;2022-12-11T01:55:42;23.47;;;10.43;;
19623;SDS011;9959;49.798;9.928;2022-12-11T01:58:13;23.77;;;10.03;;
19623;SDS011;9959;49.798;9.928;2022-12-11T02:00:44;20.58;;;10.45;;
19623;SDS011;9959;49.798;9.928;2022-12-11T02:03:12;25.03;;;10.20;;
19623;SDS011;9959;49.798;9.928;2022-12-11T02:05:42;23.33;;;10.77;;
19623;SDS011;9959;49.798;9.928;2022-12-11T02:08:10;24.93;;;10.37;;
19623;SDS011;9959;49.798;9.928;2022-12-11T02:10:43;25.67;;;10.60;;
19623;SDS011;9959;49.798;9.928;2022-12-11T02:13:20;25.73;;;11.03;;
19623;SDS011;9959;49.798;9.928;2022-12-11T02:15:56;27.23;;;10.97;;
19623;SDS011;9959;49.798;9.928;2022-12-11T02:18:33;23.80;;;10.77;;
19623;SDS011;9959;49.798;9.928;2022-12-11T02:21:07;26.07;;;10.70;;
19623;SDS011;9959;49.798;9.928;2022-12-11T02:23:48;27.47;;;10.93;;
19623;SDS011;9959;49.798;9.928;2022-12-11T02:26:47;16.97;;;6.97;;
19623;SDS011;9959;49.798;9.928;2022-12-11T02:29:27;27.80;;;10.93;;
19623;SDS011;9959;49.798;9.928;2022-12-11T02:32:00;29.23;;;11.93;;
19623;SDS011;9959;49.798;9.928;2022-12-11T02:34:32;33.40;;;13.10;;
19623;SDS011;9959;49.798;9.928;2022-12-11T02:37:07;31.93;;;11.87;;
19623;SDS011;9959;49.798;9.928;2022-12-11T02:39:38;39.73;;;13.43;;
19623;SDS011;9959;49.798;9.928;2022-12-11T02:42:10;35.47;;;14.07;;
19623;SDS011;9959;49.798;9.928;2022-12-11T02:44:42;32.97;;;12.57;;
19623;SDS011;9959;49.798;9.928;2022-12-11T02:47:13;32.10;;;12.37;;
19623;SDS011;9959;49.798;9.928;2022-12-11T02:49:43;36.30;;;13.20;;
19623;SDS011;9959;49.798;9.928;2022-12-11T02:52:13;36.97;;;14.60;;
19623;SDS011;9959;49.798;9.928;2022-12-11T02:54:45;35.70;;;15.43;;
19623;SDS011;9959;49.798;9.928;2022-12-11T02:57:15;38.90;;;14.33;;
19623;SDS011;9959;49.798;9.928;2022-12-11T02:59:49;36.33;;;14.30;;
19623;SDS011;9959;49.798;9.928;2022-12-11T03:02:17;35.63;;;13.57;;
19623;SDS011;9959;49.798;9.928;2022-12-11T03:04:45;39.93;;;15.13;;
19623;SDS011;9959;49.798;9.928;2022-12-11T03:07:15;38.00;;;14.57;;
19623;SDS011;9959;49.798;9.928;2022-12-11T03:09:48;39.67;;;14.90;;
19623;SDS011;9959;49.798;9.928;2022-12-11T03:12:17;38.03;;;14.97;;
19623;SDS011;9959;49.798;9.928;2022-12-11T03:14:50;38.80;;;14.97;;
19623;SDS011;9959;49.798;9.928;2022-12-11T03:17:19;37.50;;;15.00;;
19623;SDS011;9959;49.798;9.928;2022-12-11T03:19:52;42.20;;;15.63;;
19623;SDS011;9959;49.798;9.928;2022-12-11T03:22:28;34.90;;;14.07;;
19623;SDS011;9959;49.798;9.928;2022-12-11T03:25:03;41.53;;;14.43;;
19623;SDS011;9959;49.798;9.928;2022-12-11T03:27:35;42.67;;;16.37;;
19623;SDS011;9959;49.798;9.928;2022-12-11T03:30:11;49.37;;;16.80;;
19623;SDS011;9959;49.798;9.928;2022-12-11T03:32:43;46.77;;;14.90;;
19623;SDS011;9959;49.798;9.928;2022-12-11T03:35:16;46.57;;;15.87;;
19623;SDS011;9959;49.798;9.928;2022-12-11T03:37:47;40.13;;;15.47;;
19623;SDS011;9959;49.798;9.928;2022-12-11T03:40:18;48.23;;;16.77;;
19623;SDS011;9959;49.798;9.928;2022-12-11T03:42:49;45.07;;;18.67;;
19623;SDS011;9959;49.798;9.928;2022-12-11T03:45:20;41.83;;;14.93;;
19623;SDS011;9959;49.798;9.928;2022-12-11T03:47:51;38.43;;;16.37;;
19623;SDS011;9959;49.798;9.928;2022-12-11T03:50:22;46.50;;;17.30;;
19623;SDS011;9959;49.798;9.928;2022-12-11T03:52:52;41.67;;;16.90;;
19623;SDS011;9959;49.798;9.928;2022-12-11T03:55:21;38.17;;;15.93;;
19623;SDS011;9959;49.798;9.928;2022-12-11T03:57:49;49.93;;;17.47;;
19623;SDS011;9959;49.798;9.928;2022-12-11T04:00:18;48.00;;;16.80;;
19623;SDS011;9959;49.798;9.928;2022-12-11T04:02:48;43.10;;;16.57;;
19623;SDS011;9959;49.798;9.928;2022-12-11T04:05:38;37.93;;;15.20;;
19623;SDS011;9959;49.798;9.928;2022-12-11T04:08:06;48.87;;;16.23;;
19623;SDS011;9959;49.798;9.928;2022-12-11T04:10:34;43.07;;;16.07;;
19623;SDS011;9959;49.798;9.928;2022-12-11T04:13:02;46.43;;;17.07;;
19623;SDS011;9959;49.798;9.928;2022-12-11T04:15:31;44.13;;;17.60;;
19623;SDS011;9959;49.798;9.928;2022-12-11T04:17:58;46.90;;;17.20;;
19623;SDS011;9959;49.798;9.928;2022-12-11T04:20:44;49.23;;;16.70;;
19623;SDS011;9959;49.798;9.928;2022-12-11T04:23:29;40.03;;;15.67;;
19623;SDS011;9959;49.798;9.928;2022-12-11T04:26:15;42.70;;;16.40;;
19623;SDS011;9959;49.798;9.928;2022-12-11T04:28:47;48.07;;;17.60;;
19623;SDS011;9959;49.798;9.928;2022-12-11T04:31:18;43.50;;;15.73;;
19623;SDS011;9959;49.798;9.928;2022-12-11T04:33:47;37.53;;;14.80;;
19623;SDS011;9959;49.798;9.928;2022-12-11T04:36:15;46.77;;;16.53;;
19623;SDS011;9959;49.798;9.928;2022-12-11T04:38:43;42.23;;;15.73;;
19623;SDS011;9959;49.798;9.928;2022-12-11T04:41:12;40.63;;;14.70;;
19623;SDS011;9959;49.798;9.928;2022-12-11T04:43:41;41.17;;;15.13;;
19623;SDS011;9959;49.798;9.928;2022-12-11T04:46:11;41.63;;;15.50;;
19623;SDS011;9959;49.798;9.928;2022-12-11T04:48:42;42.87;;;15.50;;
19623;SDS011;9959;49.798;9.928;2022-12-11T04:51:10;36.70;;;15.37;;
19623;SDS011;9959;49.798;9.928;2022-12-11T04:53:39;40.77;;;15.43;;
19623;SDS011;9959;49.798;9.928;2022-12-11T04:56:07;38.10;;;14.43;;
19623;SDS011;9959;49.798;9.928;2022-12-11T04:58:36;35.43;;;12.37;;
19623;SDS011;9959;49.798;9.928;2022-12-11T05:01:06;36.47;;;13.43;;
19623;SDS011;9959;49.798;9.928;2022-12-11T05:03:34;36.50;;;14.40;;
19623;SDS011;9959;49.798;9.928;2022-12-11T05:06:04;34.87;;;12.43;;
19623;SDS011;9959;49.798;9.928;2022-12-11T05:08:33;35.83;;;12.70;;
19623;SDS011;9959;49.798;9.928;2022-12-11T05:11:02;41.37;;;15.17;;
19623;SDS011;9959;49.798;9.928;2022-12-11T05:13:32;34.50;;;13.17;;
19623;SDS011;9959;49.798;9.928;2022-12-11T05:16:02;33.03;;;13.47;;
19623;SDS011;9959;49.798;9.928;2022-12-11T05:18:31;36.57;;;13.60;;
19623;SDS011;9959;49.798;9.928;2022-12-11T05:20:59;34.67;;;13.67;;
19623;SDS011;9959;49.798;9.928;2022-12-11T05:23:30;30.10;;;12.33;;
19623;SDS011;9959;49.798;9.928;2022-12-11T05:25:58;33.63;;;13.60;;
19623;SDS011;9959;49.798;9.928;2022-12-11T05:28:29;35.43;;;14.13;;
19623;SDS011;9959;49.798;9.928;2022-12-11T05:30:59;31.67;;;13.00;;
19623;SDS011;9959;49.798;9.928;2022-12-11T05:33:28;38.77;;;13.70;;
19623;SDS011;9959;49.798;9.928;2022-12-11T05:35:56;39.33;;;14.43;;
19623;SDS011;9959;49.798;9.928;2022-12-11T05:38:24;27.77;;;11.03;;
19623;SDS011;9959;49.798;9.928;2022-12-11T05:40:57;38.03;;;15.17;;
19623;SDS011;9959;49.798;9.928;2022-12-11T05:43:26;36.17;;;12.97;;
19623;SDS011;9959;49.798;9.928;2022-12-11T05:45:55;40.13;;;13.93;;
19623;SDS011;9959;49.798;9.928;2022-12-11T05:48:30;35.57;;;14.07;;
19623;SDS011;9959;49.798;9.928;2022-12-11T05:50:59;35.60;;;13.47;;
19623;SDS011;9959;49.798;9.928;2022-12-11T05:53:28;36.13;;;14.30;;
19623;SDS011;9959;49.798;9.928;2022-12-11T05:56:01;32.60;;;14.20;;
19623;SDS011;9959;49.798;9.928;2022-12-11T05:58:29;38.23;;;14.80;;
19623;SDS011;9959;49.798;9.928;2022-12-11T06:00:58;34.20;;;14.10;;
19623;SDS011;9959;49.798;9.928;2022-12-11T06:03:26;34.43;;;13.47;;
19623;SDS011;9959;49.798;9.928;2022-12-11T06:05:55;37.13;;;15.13;;
19623;SDS011;9959;49.798;9.928;2022-12-11T06:08:23;39.30;;;14.50;;
19623;SDS011;9959;49.798;9.928;2022-12-11T06:10:51;36.40;;;15.03;;
19623;SDS011;9959;49.798;9.928;2022-12-11T06:13:20;36.70;;;15.10;;
19623;SDS011;9959;49.798;9.928;2022-12-11T06:15:48;41.37;;;15.67;;
19623;SDS011;9959;49.798;9.928;2022-12-11T06:18:16;44.87;;;15.63;;
19623;SDS011;9959;49.798;9.928;2022-12-11T06:20:44;46.60;;;17.70;;
19623;SDS011;9959;49.798;9.928;2022-12-11T06:23:12;38.83;;;15.93;;
19623;SDS011;9959;49.798;9.928;2022-12-11T06:25:40;38.63;;;15.43;;
19623;SDS011;9959;49.798;9.928;2022-12-11T06:28:08;47.47;;;16.80;;
19623;SDS011;9959;49.798;9.928;2022-12-11T06:30:37;41.40;;;17.17;;
19623;SDS011;9959;49.798;9.928;2022-12-11T06:33:05;44.03;;;16.57;;
19623;SDS011;9959;49.798;9.928;2022-12-11T06:35:33;39.47;;;15.17;;
19623;SDS011;9959;49.798;9.928;2022-12-11T06:38:07;37.43;;;14.43;;
19623;SDS011;9959;49.798;9.928;2022-12-11T06:40:36;33.97;;;14.10;;
19623;SDS011;9959;49.798;9.928;2022-12-11T06:43:04;46.47;;;16.80;;
19623;SDS011;9959;49.798;9.928;2022-12-11T06:45:32;37.70;;;15.53;;
19623;SDS011;9959;49.798;9.928;2022-12-11T06:48:01;41.43;;;15.40;;
19623;SDS011;9959;49.798;9.928;2022-12-11T06:50:29;35.50;;;14.30;;
19623;SDS011;9959;49.798;9.928;2022-12-11T06:52:57;43.00;;;16.97;;
19623;SDS011;9959;49.798;9.928;2022-12-11T06:55:25;37.67;;;13.80;;
19623;SDS011;9959;49.798;9.928;2022-12-11T06:57:53;34.67;;;13.43;;
19623;SDS011;9959;49.798;9.928;2022-12-11T07:00:21;38.00;;;13.97;;
19623;SDS011;9959;49.798;9.928;2022-12-11T07:02:49;37.77;;;13.77;;
19623;SDS011;9959;49.798;9.928;2022-12-11T07:05:18;34.80;;;15.07;;
19623;SDS011;9959;49.798;9.928;2022-12-11T07:07:46;39.63;;;14.70;;
19623;SDS011;9959;49.798;9.928;2022-12-11T07:10:14;35.00;;;13.50;;
19623;SDS011;9959;49.798;9.928;2022-12-11T07:12:42;34.40;;;13.47;;
19623;SDS011;9959;49.798;9.928;2022-12-11T07:15:10;32.03;;;13.50;;
19623;SDS011;9959;49.798;9.928;2022-12-11T07:17:39;32.33;;;14.10;;
19623;SDS011;9959;49.798;9.928;2022-12-11T07:20:07;33.73;;;13.83;;
19623;SDS011;9959;49.798;9.928;2022-12-11T07:22:37;34.37;;;13.10;;
19623;SDS011;9959;49.798;9.928;2022-12-11T07:25:11;38.10;;;14.43;;
19623;SDS011;9959;49.798;9.928;2022-12-11T07:27:40;33.17;;;13.00;;
19623;SDS011;9959;49.798;9.928;2022-12-11T07:30:08;43.27;;;16.53;;
19623;SDS011;9959;49.798;9.928;2022-12-11T07:32:37;36.17;;;14.77;;
19623;SDS011;9959;49.798;9.928;2022-12-11T07:35:05;35.00;;;13.97;;
19623;SDS011;9959;49.798;9.928;2022-12-11T07:37:34;32.87;;;14.00;;
19623;SDS011;9959;49.798;9.928;2022-12-11T07:40:05;33.17;;;12.53;;
19623;SDS011;9959;49.798;9.928;2022-12-11T07:42:34;30.67;;;14.10;;
19623;SDS011;9959;49.798;9.928;2022-12-11T07:45:09;34.87;;;14.07;;
19623;SDS011;9959;49.798;9.928;2022-12-11T07:47:38;33.43;;;12.70;;
19623;SDS011;9959;49.798;9.928;2022-12-11T07:50:06;33.67;;;13.43;;
19623;SDS011;9959;49.798;9.928;2022-12-11T07:52:35;34.50;;;12.87;;
19623;SDS011;9959;49.798;9.928;2022-12-11T07:55:04;35.77;;;13.00;;
19623;SDS011;9959;49.798;9.928;2022-12-11T07:57:33;31.63;;;12.00;;
19623;SDS011;9959;49.798;9.928;2022-12-11T08:00:01;29.93;;;11.73;;
19623;SDS011;9959;49.798;9.928;2022-12-11T08:02:31;28.23;;;12.25;;
19623;SDS011;9959;49.798;9.928;2022-12-11T08:05:02;27.13;;;12.20;;
19623;SDS011;9959;49.798;9.928;2022-12-11T08:07:32;28.20;;;11.37;;
19623;SDS011;9959;49.798;9.928;2022-12-11T08:10:00;28.33;;;11.07;;
19623;SDS011;9959;49.798;9.928;2022-12-11T08:12:30;28.37;;;11.50;;
19623;SDS011;9959;49.798;9.928;2022-12-11T08:14:58;31.20;;;12.30;;
19623;SDS011;9959;49.798;9.928;2022-12-11T08:17:26;26.67;;;10.50;;
19623;SDS011;9959;49.798;9.928;2022-12-11T08:19:58;31.43;;;11.17;;
19623;SDS011;9959;49.798;9.928;2022-12-11T08:22:26;31.13;;;11.50;;
19623;SDS011;9959;49.798;9.928;2022-12-11T08:24:53;29.48;;;11.15;;
19623;SDS011;9959;49.798;9.928;2022-12-11T08:27:21;33.57;;;13.00;;
19623;SDS011;9959;49.798;9.928;2022-12-11T08:29:51;30.20;;;11.63;;
19623;SDS011;9959;49.798;9.928;2022-12-11T08:32:19;28.33;;;11.43;;
19623;SDS011;9959;49.798;9.928;2022-12-11T08:34:47;25.20;;;9.57;;
19623;SDS011;9959;49.798;9.928;2022-12-11T08:37:17;19.97;;;9.80;;
19623;SDS011;9959;49.798;9.928;2022-12-11T08:39:46;28.07;;;10.27;;
19623;SDS011;9959;49.798;9.928;2022-12-11T08:42:14;27.67;;;10.80;;
19623;SDS011;9959;49.798;9.928;2022-12-11T08:44:42;28.37;;;10.60;;
19623;SDS011;9959;49.798;9.928;2022-12-11T08:47:11;28.23;;;11.20;;
19623;SDS011;9959;49.798;9.928;2022-12-11T08:49:40;24.90;;;10.00;;
19623;SDS011;9959;49.798;9.928;2022-12-11T08:52:08;25.10;;;10.13;;
19623;SDS011;9959;49.798;9.928;2022-12-11T08:54:36;26.13;;;10.57;;
19623;SDS011;9959;49.798;9.928;2022-12-11T08:57:06;27.90;;;11.13;;
19623;SDS011;9959;49.798;9.928;2022-12-11T08:59:34;23.98;;;11.02;;
19623;SDS011;9959;49.798;9.928;2022-12-11T09:02:02;25.88;;;10.55;;
19623;SDS011;9959;49.798;9.928;2022-12-11T09:04:31;25.53;;;10.93;;
19623;SDS011;9959;49.798;9.928;2022-12-11T09:06:59;24.40;;;9.97;;
19623;SDS011;9959;49.798;9.928;2022-12-11T09:09:28;25.50;;;10.73;;
19623;SDS011;9959;49.798;9.928;2022-12-11T09:11:56;28.63;;;11.37;;
19623;SDS011;9959;49.798;9.928;2022-12-11T09:14:24;27.63;;;10.63;;
19623;SDS011;9959;49.798;9.928;2022-12-11T09:16:52;25.80;;;11.40;;
19623;SDS011;9959;49.798;9.928;2022-12-11T09:19:20;25.77;;;10.67;;
19623;SDS011;9959;49.798;9.928;2022-12-11T09:21:57;26.88;;;10.48;;
19623;SDS011;9959;49.798;9.928;2022-12-11T09:24:25;26.77;;;10.15;;
19623;SDS011;9959;49.798;9.928;2022-12-11T09:26:53;25.43;;;11.03;;
19623;SDS011;9959;49.798;9.928;2022-12-11T09:29:20;28.93;;;10.70;;
19623;SDS011;9959;49.798;9.928;2022-12-11T09:31:49;27.15;;;11.00;;
19623;SDS011;9959;49.798;9.928;2022-12-11T09:34:17;24.15;;;9.88;;
19623;SDS011;9959;49.798;9.928;2022-12-11T09:36:52;26.50;;;10.88;;
19623;SDS011;9959;49.798;9.928;2022-12-11T09:39:22;25.05;;;10.50;;
19623;SDS011;9959;49.798;9.928;2022-12-11T09:41:51;24.20;;;10.73;;
19623;SDS011;9959;49.798;9.928;2022-12-11T09:44:30;24.60;;;9.57;;
19623;SDS011;9959;49.798;9.928;2022-12-11T09:47:01;24.27;;;9.27;;
19623;SDS011;9959;49.798;9.928;2022-12-11T09:49:32;24.17;;;9.27;;
19623;SDS011;9959;49.798;9.928;2022-12-11T09:52:07;19.00;;;9.27;;
19623;SDS011;9959;49.798;9.928;2022-12-11T09:54:43;23.57;;;9.50;;
19623;SDS011;9959;49.798;9.928;2022-12-11T09:57:18;23.45;;;9.15;;
19623;SDS011;9959;49.798;9.928;2022-12-11T10:00:00;24.40;;;10.07;;
19623;SDS011;9959;49.798;9.928;2022-12-11T10:02:41;25.13;;;9.93;;
19623;SDS011;9959;49.798;9.928;2022-12-11T10:05:25;25.67;;;9.80;;
19623;SDS011;9959;49.798;9.928;2022-12-11T10:08:01;24.60;;;9.23;;
19623;SDS011;9959;49.798;9.928;2022-12-11T10:10:39;25.63;;;9.85;;
19623;SDS011;9959;49.798;9.928;2022-12-11T10:13:12;24.77;;;10.17;;
19623;SDS011;9959;49.798;9.928;2022-12-11T10:15:50;20.08;;;9.13;;
19623;SDS011;9959;49.798;9.928;2022-12-11T10:18:22;24.77;;;10.00;;
19623;SDS011;9959;49.798;9.928;2022-12-11T10:20:52;24.67;;;9.97;;
19623;SDS011;9959;49.798;9.928;2022-12-11T10:23:23;25.40;;;9.63;;
19623;SDS011;9959;49.798;9.928;2022-12-11T10:25:57;22.42;;;9.85;;
19623;SDS011;9959;49.798;9.928;2022-12-11T10:28:32;23.30;;;9.50;;
19623;SDS011;9959;49.798;9.928;2022-12-11T10:31:04;25.38;;;10.50;;
19623;SDS011;9959;49.798;9.928;2022-12-11T10:33:40;24.17;;;9.37;;
19623;SDS011;9959;49.798;9.928;2022-12-11T10:36:22;22.45;;;9.82;;
19623;SDS011;9959;49.798;9.928;2022-12-11T10:38:54;24.93;;;9.73;;
19623;SDS011;9959;49.798;9.928;2022-12-11T10:41:28;19.17;;;9.47;;
19623;SDS011;9959;49.798;9.928;2022-12-11T10:44:12;21.58;;;8.73;;
19623;SDS011;9959;49.798;9.928;2022-12-11T10:46:43;19.73;;;8.32;;
19623;SDS011;9959;49.798;9.928;2022-12-11T10:49:22;18.08;;;7.70;;
19623;SDS011;9959;49.798;9.928;2022-12-11T10:51:51;18.00;;;7.72;;
19623;SDS011;9959;49.798;9.928;2022-12-11T10:54:27;20.83;;;8.48;;
19623;SDS011;9959;49.798;9.928;2022-12-11T10:56:59;21.88;;;8.30;;
19623;SDS011;9959;49.798;9.928;2022-12-11T10:59:30;22.60;;;10.23;;
19623;SDS011;9959;49.798;9.928;2022-12-11T11:02:03;20.88;;;8.52;;
19623;SDS011;9959;49.798;9.928;2022-12-11T11:04:34;21.30;;;9.43;;
19623;SDS011;9959;49.798;9.928;2022-12-11T11:07:09;21.25;;;8.85;;
19623;SDS011;9959;49.798;9.928;2022-12-11T11:09:39;23.83;;;10.15;;
19623;SDS011;9959;49.798;9.928;2022-12-11T11:12:19;23.85;;;10.77;;
19623;SDS011;9959;49.798;9.928;2022-12-11T11:14:59;20.33;;;9.35;;
19623;SDS011;9959;49.798;9.928;2022-12-11T11:17:29;22.30;;;9.83;;
19623;SDS011;9959;49.798;9.928;2022-12-11T11:20:03;20.40;;;9.32;;
19623;SDS011;9959;49.798;9.928;2022-12-11T11:22:39;22.15;;;10.07;;
19623;SDS011;9959;49.798;9.928;2022-12-11T11:25:17;23.08;;;8.43;;
19623;SDS011;9959;49.798;9.928;2022-12-11T11:27:51;23.15;;;9.57;;
19623;SDS011;9959;49.798;9.928;2022-12-11T11:30:22;20.10;;;10.02;;
19623;SDS011;9959;49.798;9.928;2022-12-11T11:32:52;18.27;;;8.30;;
19623;SDS011;9959;49.798;9.928;2022-12-11T11:35:23;21.77;;;8.73;;
19623;SDS011;9959;49.798;9.928;2022-12-11T11:37:58;23.60;;;8.70;;
19623;SDS011;9959;49.798;9.928;2022-12-11T11:40:32;24.63;;;9.10;;
19623;SDS011;9959;49.798;9.928;2022-12-11T11:43:09;20.15;;;9.10;;
19623;SDS011;9959;49.798;9.928;2022-12-11T11:45:45;21.48;;;9.70;;
19623;SDS011;9959;49.798;9.928;2022-12-11T11:48:33;24.65;;;9.93;;
19623;SDS011;9959;49.798;9.928;2022-12-11T11:51:11;21.40;;;9.70;;
19623;SDS011;9959;49.798;9.928;2022-12-11T11:53:43;20.60;;;8.88;;
19623;SDS011;9959;49.798;9.928;2022-12-11T11:56:19;24.45;;;10.02;;
19623;SDS011;9959;49.798;9.928;2022-12-11T11:58:53;20.85;;;8.93;;
19623;SDS011;9959;49.798;9.928;2022-12-11T12:01:28;22.55;;;9.50;;
19623;SDS011;9959;49.798;9.928;2022-12-11T12:03:57;21.67;;;9.20;;
19623;SDS011;9959;49.798;9.928;2022-12-11T12:06:27;21.35;;;9.77;;
19623;SDS011;9959;49.798;9.928;2022-12-11T12:09:02;28.80;;;10.40;;
19623;SDS011;9959;49.798;9.928;2022-12-11T12:11:43;20.50;;;9.48;;
19623;SDS011;9959;49.798;9.928;2022-12-11T12:14:18;22.95;;;9.88;;
19623;SDS011;9959;49.798;9.928;2022-12-11T12:17:11;20.65;;;8.10;;
19623;SDS011;9959;49.798;9.928;2022-12-11T12:19:49;21.48;;;8.88;;
19623;SDS011;9959;49.798;9.928;2022-12-11T12:22:28;26.20;;;9.60;;
19623;SDS011;9959;49.798;9.928;2022-12-11T12:25:05;23.63;;;10.18;;
19623;SDS011;9959;49.798;9.928;2022-12-11T12:27:43;23.45;;;10.10;;
19623;SDS011;9959;49.798;9.928;2022-12-11T12:30:20;21.25;;;10.18;;
19623;SDS011;9959;49.798;9.928;2022-12-11T12:32:55;21.67;;;10.25;;
19623;SDS011;9959;49.798;9.928;2022-12-11T12:35:33;23.33;;;10.15;;
19623;SDS011;9959;49.798;9.928;2022-12-11T12:38:04;23.98;;;11.45;;
19623;SDS011;9959;49.798;9.928;2022-12-11T12:40:39;26.10;;;10.82;;
19623;SDS011;9959;49.798;9.928;2022-12-11T12:43:25;26.15;;;10.40;;
19623;SDS011;9959;49.798;9.928;2022-12-11T12:46:05;21.25;;;10.23;;
19623;SDS011;9959;49.798;9.928;2022-12-11T12:48:43;24.80;;;10.65;;
19623;SDS011;9959;49.798;9.928;2022-12-11T12:51:12;25.65;;;9.93;;
19623;SDS011;9959;49.798;9.928;2022-12-11T12:53:42;27.30;;;11.48;;
19623;SDS011;9959;49.798;9.928;2022-12-11T12:56:19;23.90;;;10.35;;
19623;SDS011;9959;49.798;9.928;2022-12-11T12:58:48;26.05;;;11.60;;
19623;SDS011;9959;49.798;9.928;2022-12-11T13:01:18;24.00;;;10.93;;
19623;SDS011;9959;49.798;9.928;2022-12-11T13:03:49;25.80;;;9.95;;
19623;SDS011;9959;49.798;9.928;2022-12-11T13:06:30;19.50;;;8.98;;
19623;SDS011;9959;49.798;9.928;2022-12-11T13:09:12;26.48;;;10.02;;
19623;SDS011;9959;49.798;9.928;2022-12-11T13:11:43;23.27;;;9.25;;
19623;SDS011;9959;49.798;9.928;2022-12-11T13:14:23;22.02;;;9.23;;
19623;SDS011;9959;49.798;9.928;2022-12-11T13:17:06;27.65;;;10.48;;
19623;SDS011;9959;49.798;9.928;2022-12-11T13:20:05;24.25;;;10.05;;
19623;SDS011;9959;49.798;9.928;2022-12-11T13:22:46;23.05;;;10.98;;
19623;SDS011;9959;49.798;9.928;2022-12-11T13:25:20;24.30;;;10.32;;
19623;SDS011;9959;49.798;9.928;2022-12-11T13:27:51;24.08;;;9.68;;
19623;SDS011;9959;49.798;9.928;2022-12-11T13:30:20;26.48;;;11.07;;
19623;SDS011;9959;49.798;9.928;2022-12-11T13:32:56;25.52;;;10.05;;
19623;SDS011;9959;49.798;9.928;2022-12-11T13:35:29;27.80;;;11.30;;
19623;SDS011;9959;49.798;9.928;2022-12-11T13:38:00;22.02;;;10.00;;
19623;SDS011;9959;49.798;9.928;2022-12-11T13:40:34;23.67;;;9.88;;
19623;SDS011;9959;49.798;9.928;2022-12-11T13:43:07;25.90;;;11.15;;
19623;SDS011;9959;49.798;9.928;2022-12-11T13:45:45;27.90;;;11.40;;
19623;SDS011;9959;49.798;9.928;2022-12-11T13:48:21;23.10;;;10.30;;
19623;SDS011;9959;49.798;9.928;2022-12-11T13:50:53;25.87;;;10.57;;
19623;SDS011;9959;49.798;9.928;2022-12-11T13:53:23;24.13;;;9.70;;
19623;SDS011;9959;49.798;9.928;2022-12-11T13:55:57;24.63;;;11.35;;
19623;SDS011;9959;49.798;9.928;2022-12-11T13:58:28;24.98;;;9.70;;
19623;SDS011;9959;49.798;9.928;2022-12-11T14:01:01;29.73;;;12.35;;
19623;SDS011;9959;49.798;9.928;2022-12-11T14:03:34;29.80;;;10.52;;
19623;SDS011;9959;49.798;9.928;2022-12-11T14:06:07;24.05;;;9.32;;
19623;SDS011;9959;49.798;9.928;2022-12-11T14:08:44;19.30;;;9.00;;
19623;SDS011;9959;49.798;9.928;2022-12-11T14:11:16;24.67;;;11.48;;
19623;SDS011;9959;49.798;9.928;2022-12-11T14:13:50;27.92;;;11.30;;
19623;SDS011;9959;49.798;9.928;2022-12-11T14:16:18;29.30;;;10.18;;
19623;SDS011;9959;49.798;9.928;2022-12-11T14:18:53;30.05;;;10.75;;
19623;SDS011;9959;49.798;9.928;2022-12-11T14:21:28;28.42;;;11.07;;
19623;SDS011;9959;49.798;9.928;2022-12-11T14:23:57;28.05;;;10.73;;
19623;SDS011;9959;49.798;9.928;2022-12-11T14:26:27;31.65;;;11.82;;
19623;SDS011;9959;49.798;9.928;2022-12-11T14:28:55;32.08;;;14.55;;
19623;SDS011;9959;49.798;9.928;2022-12-11T14:31:25;29.77;;;12.95;;
19623;SDS011;9959;49.798;9.928;2022-12-11T14:33:58;29.25;;;12.38;;
19623;SDS011;9959;49.798;9.928;2022-12-11T14:36:29;24.83;;;11.37;;
19623;SDS011;9959;49.798;9.928;2022-12-11T14:39:00;26.30;;;10.52;;
19623;SDS011;9959;49.798;9.928;2022-12-11T14:41:34;27.75;;;12.63;;
19623;SDS011;9959;49.798;9.928;2022-12-11T14:44:11;31.77;;;11.63;;
19623;SDS011;9959;49.798;9.928;2022-12-11T14:46:43;38.10;;;12.52;;
19623;SDS011;9959;49.798;9.928;2022-12-11T14:49:18;29.75;;;12.15;;
19623;SDS011;9959;49.798;9.928;2022-12-11T14:51:50;32.20;;;11.32;;
19623;SDS011;9959;49.798;9.928;2022-12-11T14:54:25;31.38;;;12.07;;
19623;SDS011;9959;49.798;9.928;2022-12-11T14:56:57;34.10;;;12.88;;
19623;SDS011;9959;49.798;9.928;2022-12-11T14:59:27;32.97;;;12.70;;
19623;SDS011;9959;49.798;9.928;2022-12-11T15:01:59;30.73;;;11.95;;
19623;SDS011;9959;49.798;9.928;2022-12-11T15:04:31;32.65;;;12.88;;